Time;durP1;ratioP1;P1;durP2;ratioP2;P2;SDS_P1;SDS_P2;PMS_P1;PMS_P2;Temp;Humidity;BMP_temperature;BMP_pressure;BME280_temperature;BME280_humidity;BME280_pressure;Samples;Min_cycle;Max_cycle;Signal;HPM_P1;HPM_P2
2021/01/06 00:00:47;;;;;;;3.50;2.15;;;0.20;99.90;;;;;;5053792;28;20174;-60
2021/01/06 00:03:15;;;;;;;3.20;2.35;;;0.10;99.90;;;;;;5051574;28;20191;-60
2021/01/06 00:05:42;;;;;;;4.82;2.45;;;0.10;99.90;;;;;;5053165;28;20183;-60
2021/01/06 00:08:08;;;;;;;6.43;2.28;;;0.20;99.90;;;;;;5053348;28;20218;-61
2021/01/06 00:10:34;;;;;;;5.25;2.22;;;0.20;99.90;;;;;;5053344;28;20181;-60
2021/01/06 00:13:00;;;;;;;3.17;2.00;;;0.10;99.90;;;;;;5053907;28;20695;-60
2021/01/06 00:15:34;;;;;;;4.15;2.33;;;0.10;99.90;;;;;;5053588;28;20186;-60
2021/01/06 00:18:00;;;;;;;4.13;2.05;;;0.10;99.90;;;;;;5053667;28;20202;-60
2021/01/06 00:20:27;;;;;;;2.55;1.98;;;0.10;99.90;;;;;;5051935;28;20174;-61
2021/01/06 00:22:53;;;;;;;3.75;2.00;;;0.10;99.90;;;;;;5051631;28;20178;-60
2021/01/06 00:25:26;;;;;;;2.97;2.03;;;0.10;99.90;;;;;;5052710;28;20581;-59
2021/01/06 00:27:52;;;;;;;4.03;2.20;;;0.10;99.90;;;;;;5051966;28;20198;-60
2021/01/06 00:30:24;;;;;;;3.08;2.05;;;0.10;99.90;;;;;;5053182;28;20186;-60
2021/01/06 00:32:50;;;;;;;2.55;1.73;;;0.10;99.90;;;;;;5052462;28;20548;-60
2021/01/06 00:35:20;;;;;;;3.33;2.05;;;0.20;99.90;;;;;;5051783;28;20175;-60
2021/01/06 00:37:47;;;;;;;2.72;2.00;;;0.10;99.90;;;;;;5052831;28;20546;-60
2021/01/06 00:40:13;;;;;;;4.32;2.10;;;0.20;99.90;;;;;;5075637;28;20653;-60
2021/01/06 00:42:39;;;;;;;3.22;2.30;;;0.10;99.90;;;;;;5053216;28;20175;-60
2021/01/06 00:45:07;;;;;;;3.53;1.92;;;0.10;99.90;;;;;;5053831;28;20170;-60
2021/01/06 00:47:33;;;;;;;3.25;2.10;;;0.10;99.90;;;;;;5053190;28;20217;-60
2021/01/06 00:49:59;;;;;;;2.88;1.88;;;0.10;99.90;;;;;;5053267;28;20167;-60
2021/01/06 00:52:26;;;;;;;3.88;2.30;;;0.10;99.90;;;;;;5052389;28;20170;-60
2021/01/06 00:54:52;;;;;;;3.60;2.08;;;0.10;99.90;;;;;;5052506;28;20179;-60
2021/01/06 00:57:18;;;;;;;3.10;1.80;;;0.00;99.90;;;;;;5054640;28;20174;-60
2021/01/06 00:59:45;;;;;;;3.00;2.00;;;0.00;99.90;;;;;;5053121;28;20182;-60
2021/01/06 01:02:12;;;;;;;3.17;2.13;;;0.10;99.90;;;;;;5053287;28;20958;-60
2021/01/06 01:04:38;;;;;;;4.18;2.13;;;0.10;99.90;;;;;;5052417;28;20541;-60
2021/01/06 01:07:04;;;;;;;2.97;1.90;;;0.10;99.90;;;;;;5052766;28;20577;-60
2021/01/06 01:09:30;;;;;;;5.30;2.08;;;0.10;99.90;;;;;;5051647;28;20519;-60
2021/01/06 01:11:56;;;;;;;4.35;2.28;;;0.10;99.90;;;;;;5051896;28;20190;-60
2021/01/06 01:14:22;;;;;;;4.35;2.10;;;0.10;99.90;;;;;;5060933;28;20181;-60
2021/01/06 01:16:51;;;;;;;2.42;1.95;;;0.10;99.90;;;;;;5052463;28;20178;-60
2021/01/06 01:19:17;;;;;;;5.13;2.40;;;0.10;99.90;;;;;;5051694;28;20198;-60
2021/01/06 01:21:43;;;;;;;5.45;1.75;;;0.10;99.90;;;;;;5059198;28;20178;-60
2021/01/06 01:24:09;;;;;;;2.70;1.90;;;0.10;99.90;;;;;;5065980;28;20185;-60
2021/01/06 01:26:36;;;;;;;3.15;1.95;;;0.10;99.90;;;;;;5057330;28;20210;-60
2021/01/06 01:29:02;;;;;;;3.08;2.00;;;0.10;99.90;;;;;;5052007;28;20189;-60
2021/01/06 01:31:36;;;;;;;2.60;1.80;;;0.10;99.90;;;;;;5051230;28;20171;-60
2021/01/06 01:34:02;;;;;;;2.70;1.85;;;0.10;99.90;;;;;;5051688;28;20202;-60
2021/01/06 01:36:28;;;;;;;2.90;1.77;;;0.00;99.90;;;;;;5051326;28;20194;-60
2021/01/06 01:38:55;;;;;;;2.92;2.00;;;0.00;99.90;;;;;;5057459;28;20178;-60
2021/01/06 01:41:23;;;;;;;3.00;1.77;;;0.10;99.90;;;;;;5055853;28;20190;-60
2021/01/06 01:43:49;;;;;;;5.30;2.10;;;0.00;99.90;;;;;;5053344;28;20171;-60
2021/01/06 01:46:45;;;;;;;3.17;1.70;;;0.10;99.90;;;;;;5053622;28;20197;-60
2021/01/06 01:49:20;;;;;;;3.33;1.75;;;0.10;99.90;;;;;;5047121;28;20515;-60
2021/01/06 01:52:01;;;;;;;2.63;1.70;;;0.00;99.90;;;;;;5050569;28;20161;-60
2021/01/06 01:54:27;;;;;;;2.40;1.60;;;0.00;99.90;;;;;;5049179;28;20175;-60
2021/01/06 01:57:01;;;;;;;3.47;2.13;;;0.00;99.90;;;;;;5037860;28;20181;-60
2021/01/06 01:59:27;;;;;;;2.00;1.60;;;-0.10;99.90;;;;;;5046701;28;20628;-60
2021/01/06 02:01:53;;;;;;;3.92;1.83;;;-0.10;99.90;;;;;;5051784;28;20545;-60
2021/01/06 02:04:29;;;;;;;2.45;1.80;;;-0.10;99.90;;;;;;5033914;28;20178;-60
2021/01/06 02:07:02;;;;;;;2.85;1.70;;;0.00;99.90;;;;;;5049365;28;20205;-60
2021/01/06 02:09:58;;;;;;;2.45;1.60;;;0.00;99.90;;;;;;5050760;28;20154;-60
2021/01/06 02:12:48;;;;;;;2.60;1.80;;;0.00;99.90;;;;;;5050404;28;20613;-60
2021/01/06 02:15:47;;;;;;;2.80;1.83;;;-0.10;99.90;;;;;;5051347;28;20191;-60
2021/01/06 02:18:13;;;;;;;2.42;1.65;;;-0.10;99.90;;;;;;5049141;28;20210;-60
2021/01/06 02:20:39;;;;;;;3.28;1.80;;;-0.10;99.90;;;;;;5059237;28;20201;-60
2021/01/06 02:23:06;;;;;;;3.28;1.88;;;-0.10;99.90;;;;;;5052974;28;20194;-60
2021/01/06 02:25:32;;;;;;;3.17;1.75;;;-0.10;99.90;;;;;;5055703;28;20220;-60
2021/01/06 02:27:59;;;;;;;2.60;1.70;;;-0.10;99.90;;;;;;5065935;28;20190;-60
2021/01/06 02:30:25;;;;;;;4.82;2.13;;;-0.10;99.90;;;;;;5051182;28;20175;-60
2021/01/06 02:32:51;;;;;;;2.75;1.70;;;-0.10;99.90;;;;;;5049320;28;20187;-60
2021/01/06 02:35:18;;;;;;;2.08;1.60;;;-0.10;99.90;;;;;;5050335;28;20159;-60
2021/01/06 02:37:44;;;;;;;3.47;1.80;;;-0.10;99.90;;;;;;5051389;28;20189;-60
2021/01/06 02:40:10;;;;;;;2.42;1.70;;;-0.10;99.90;;;;;;5032736;28;20183;-60
2021/01/06 02:42:37;;;;;;;2.28;1.77;;;-0.10;99.90;;;;;;5056635;28;20178;-61
2021/01/06 02:45:06;;;;;;;2.85;1.92;;;-0.20;99.90;;;;;;5046085;28;20189;-60
2021/01/06 02:47:32;;;;;;;3.35;2.00;;;-0.10;99.90;;;;;;5049988;28;20233;-60
2021/01/06 02:49:58;;;;;;;2.75;1.67;;;-0.20;99.90;;;;;;5057392;28;20178;-60
2021/01/06 02:52:34;;;;;;;2.65;1.80;;;-0.20;99.90;;;;;;5044486;28;20170;-60
2021/01/06 02:55:00;;;;;;;2.60;1.90;;;-0.20;99.90;;;;;;5057196;28;20177;-60
2021/01/06 02:57:27;;;;;;;3.00;1.90;;;-0.20;99.90;;;;;;5044053;28;20178;-60
2021/01/06 02:59:53;;;;;;;2.67;1.88;;;-0.20;99.90;;;;;;5054217;28;20170;-60
2021/01/06 03:02:22;;;;;;;2.88;1.88;;;-0.20;99.90;;;;;;5068931;28;20165;-60
2021/01/06 03:05:08;;;;;;;5.32;1.90;;;-0.20;99.90;;;;;;5053525;28;20171;-60
2021/01/06 03:07:35;;;;;;;3.03;1.58;;;-0.20;99.90;;;;;;5020414;28;20671;-60
2021/01/06 03:10:02;;;;;;;3.50;2.15;;;-0.20;99.90;;;;;;5048043;28;20186;-60
2021/01/06 03:12:30;;;;;;;2.95;1.80;;;-0.20;99.90;;;;;;5058808;28;20194;-60
2021/01/06 03:14:57;;;;;;;3.00;1.80;;;-0.20;99.90;;;;;;5059297;28;20171;-60
2021/01/06 03:17:23;;;;;;;2.65;1.90;;;-0.20;99.90;;;;;;5045272;28;20202;-60
2021/01/06 03:19:55;;;;;;;2.60;1.80;;;-0.20;99.90;;;;;;5042276;28;20181;-60
2021/01/06 03:22:23;;;;;;;2.72;2.00;;;-0.20;99.90;;;;;;5044202;28;20168;-60
2021/01/06 03:25:15;;;;;;;2.70;1.77;;;-0.20;99.90;;;;;;5055858;28;20174;-60
2021/01/06 03:27:42;;;;;;;2.00;1.50;;;-0.20;99.90;;;;;;5069243;28;20577;-60
2021/01/06 03:30:17;;;;;;;2.17;1.60;;;-0.20;99.90;;;;;;5051493;28;20177;-60
2021/01/06 03:32:45;;;;;;;2.88;2.10;;;-0.30;99.90;;;;;;5045107;28;20182;-60
2021/01/06 03:35:24;;;;;;;2.70;1.90;;;-0.30;99.90;;;;;;5053172;28;20163;-60
2021/01/06 03:37:55;;;;;;;2.65;1.60;;;-0.30;99.90;;;;;;5046715;28;20162;-60
2021/01/06 03:40:29;;;;;;;2.30;1.73;;;-0.30;99.90;;;;;;5028940;28;20675;-60
2021/01/06 03:42:55;;;;;;;2.20;1.73;;;-0.30;99.90;;;;;;5052003;28;20186;-60
2021/01/06 03:45:23;;;;;;;2.53;1.90;;;-0.30;99.90;;;;;;5046007;28;20173;-60
2021/01/06 03:47:56;;;;;;;2.17;1.63;;;-0.30;99.90;;;;;;5049640;28;20206;-60
2021/01/06 03:50:41;;;;;;;3.50;2.00;;;-0.30;99.90;;;;;;5038017;28;20518;-60
2021/01/06 03:53:20;;;;;;;2.85;1.60;;;-0.30;99.90;;;;;;5051613;28;20525;-60
2021/01/06 03:55:59;;;;;;;2.92;1.90;;;-0.30;99.90;;;;;;5051859;28;20209;-60
2021/01/06 03:59:05;;;;;;;2.67;1.90;;;-0.30;99.90;;;;;;5037415;28;20183;-61
2021/01/06 04:01:57;;;;;;;2.75;1.92;;;-0.40;99.90;;;;;;5058943;28;20193;-60
2021/01/06 04:04:29;;;;;;;7.93;2.10;;;-0.40;99.90;;;;;;5059272;28;20654;-61
2021/01/06 04:06:55;;;;;;;1.95;1.38;;;-0.40;99.90;;;;;;5053477;28;20166;-60
2021/01/06 04:09:47;;;;;;;2.60;1.85;;;-0.40;99.90;;;;;;5053568;28;20561;-60
2021/01/06 04:12:16;;;;;;;2.50;1.70;;;-0.40;99.90;;;;;;5058672;28;20502;-60
2021/01/06 04:14:42;;;;;;;3.72;1.80;;;-0.40;99.90;;;;;;5059170;28;20175;-60
2021/01/06 04:17:34;;;;;;;2.97;1.80;;;-0.40;99.90;;;;;;5067366;28;20170;-60
2021/01/06 04:20:14;;;;;;;2.75;1.85;;;-0.40;99.90;;;;;;5051436;28;20178;-60
2021/01/06 04:22:51;;;;;;;2.42;1.73;;;-0.40;99.90;;;;;;5053139;28;20355;-60
2021/01/06 04:25:31;;;;;;;3.97;2.00;;;-0.40;99.90;;;;;;5048751;28;20202;-60
2021/01/06 04:28:12;;;;;;;8.43;2.03;;;-0.40;99.90;;;;;;5052573;28;20199;-60
2021/01/06 04:30:48;;;;;;;2.70;1.70;;;-0.40;99.90;;;;;;5049644;28;20496;-60
2021/01/06 04:33:24;;;;;;;2.53;1.75;;;-0.40;99.90;;;;;;5060224;28;20168;-60
2021/01/06 04:35:51;;;;;;;7.90;1.90;;;-0.50;99.90;;;;;;5036203;28;20187;-61
2021/01/06 04:38:22;;;;;;;3.95;1.92;;;-0.50;99.90;;;;;;5052410;28;20658;-60
2021/01/06 04:40:50;;;;;;;2.20;1.67;;;-0.40;99.90;;;;;;5051517;28;20165;-60
2021/01/06 04:43:36;;;;;;;2.25;1.83;;;-0.50;99.90;;;;;;5056890;28;20193;-60
2021/01/06 04:46:39;;;;;;;3.33;2.45;;;-0.50;99.90;;;;;;5051538;28;20162;-60
2021/01/06 04:49:43;;;;;;;2.08;1.48;;;-0.50;99.90;;;;;;5068570;28;20654;-60
2021/01/06 04:52:32;;;;;;;2.25;1.80;;;-0.40;99.90;;;;;;5038994;28;20165;-61
2021/01/06 04:55:56;;;;;;;3.97;2.05;;;-0.50;99.90;;;;;;5057384;28;20187;-60
2021/01/06 04:58:28;;;;;;;2.45;1.85;;;-0.50;99.90;;;;;;5001261;28;20660;-60
2021/01/06 05:01:08;;;;;;;2.05;1.50;;;-0.50;99.90;;;;;;4997708;28;20180;-60
2021/01/06 05:03:49;;;;;;;2.58;1.80;;;-0.50;99.90;;;;;;5037065;28;20526;-61
2021/01/06 05:07:02;;;;;;;5.45;1.60;;;-0.50;99.90;;;;;;5062037;28;20163;-61
2021/01/06 05:09:43;;;;;;;2.15;1.75;;;-0.50;99.90;;;;;;5069859;28;20210;-61
2021/01/06 05:12:11;;;;;;;2.40;1.80;;;-0.50;99.90;;;;;;5055635;28;20173;-61
2021/01/06 05:14:44;;;;;;;2.00;1.50;;;-0.50;99.90;;;;;;5046956;28;20183;-61
2021/01/06 05:17:10;;;;;;;1.90;1.60;;;-0.60;99.90;;;;;;5058130;28;20170;-61
2021/01/06 05:19:36;;;;;;;1.90;1.67;;;-0.60;99.90;;;;;;5034867;28;20178;-60
2021/01/06 05:22:03;;;;;;;2.28;1.77;;;-0.60;99.90;;;;;;5051149;28;20175;-61
2021/01/06 05:24:43;;;;;;;2.55;2.00;;;-0.60;99.90;;;;;;5051045;28;20178;-60
2021/01/06 05:27:12;;;;;;;2.85;1.95;;;-0.70;99.90;;;;;;5050455;28;20198;-61
2021/01/06 05:29:39;;;;;;;2.33;1.75;;;-0.70;99.90;;;;;;5061700;28;20205;-61
2021/01/06 05:32:05;;;;;;;2.08;1.63;;;-0.70;99.90;;;;;;5057461;28;20663;-61
2021/01/06 05:34:32;;;;;;;2.90;1.90;;;-0.70;99.90;;;;;;5051714;28;20552;-61
2021/01/06 05:36:58;;;;;;;2.60;1.48;;;-0.70;99.90;;;;;;5040087;28;20666;-60
2021/01/06 05:39:27;;;;;;;2.33;1.70;;;-0.70;99.90;;;;;;5051008;28;20522;-61
2021/01/06 05:41:55;;;;;;;3.08;1.85;;;-0.70;99.90;;;;;;5051921;28;20181;-60
2021/01/06 05:44:21;;;;;;;2.15;1.63;;;-0.70;99.90;;;;;;5055751;28;20517;-60
2021/01/06 05:46:47;;;;;;;2.10;1.73;;;-0.70;99.90;;;;;;5056020;28;20186;-61
2021/01/06 05:49:23;;;;;;;2.22;1.80;;;-0.80;99.90;;;;;;5055423;28;20200;-61
2021/01/06 05:51:58;;;;;;;2.08;1.40;;;-0.70;99.90;;;;;;5050408;28;20642;-61
2021/01/06 05:54:56;;;;;;;2.38;1.30;;;-0.70;99.90;;;;;;5051479;28;20178;-61
2021/01/06 05:57:28;;;;;;;2.83;1.50;;;-0.70;99.90;;;;;;5051893;28;20186;-61
2021/01/06 06:00:24;;;;;;;2.13;1.60;;;-0.80;99.90;;;;;;5063297;28;20526;-61
2021/01/06 06:03:14;;;;;;;2.78;1.40;;;-0.70;99.90;;;;;;5059353;28;20788;-61
2021/01/06 06:06:04;;;;;;;2.47;1.40;;;-0.70;99.90;;;;;;5050233;28;20187;-60
2021/01/06 06:08:51;;;;;;;7.88;1.45;;;-0.70;99.90;;;;;;5049782;28;20218;-61
2021/01/06 06:11:30;;;;;;;2.30;1.30;;;-0.80;99.90;;;;;;5055553;28;20650;-61
2021/01/06 06:14:34;;;;;;;2.28;1.40;;;-0.70;99.90;;;;;;5054464;28;20186;-61
2021/01/06 06:17:10;;;;;;;1.58;1.30;;;-0.70;99.90;;;;;;5047928;28;20552;-61
2021/01/06 06:20:24;;;;;;;2.28;1.40;;;-0.80;99.90;;;;;;5043974;28;20182;-61
2021/01/06 06:23:27;;;;;;;3.38;1.45;;;-0.70;99.90;;;;;;5034821;28;20182;-61
2021/01/06 06:26:11;;;;;;;1.83;1.38;;;-0.70;99.90;;;;;;5032950;28;20225;-60
2021/01/06 06:29:13;;;;;;;3.38;1.33;;;-0.70;99.90;;;;;;5045346;28;20324;-61
2021/01/06 06:31:39;;;;;;;1.63;1.27;;;-0.80;99.90;;;;;;5049933;28;20189;-61
2021/01/06 06:34:06;;;;;;;2.78;1.60;;;-0.70;99.90;;;;;;5043551;28;20187;-60
2021/01/06 06:36:35;;;;;;;1.52;1.30;;;-0.80;99.90;;;;;;5054338;28;20182;-61
2021/01/06 06:39:29;;;;;;;2.90;1.42;;;-0.80;99.90;;;;;;5055258;28;20562;-61
2021/01/06 06:42:21;;;;;;;1.92;1.30;;;-0.80;99.90;;;;;;5055262;28;20155;-60
2021/01/06 06:44:54;;;;;;;1.58;1.35;;;-0.80;99.90;;;;;;5050983;28;20662;-60
2021/01/06 06:47:23;;;;;;;2.05;1.40;;;-0.80;99.90;;;;;;5054531;28;20186;-61
2021/01/06 06:50:10;;;;;;;2.80;1.60;;;-0.70;99.90;;;;;;5046809;28;20789;-61
2021/01/06 06:52:47;;;;;;;3.70;1.30;;;-0.80;99.90;;;;;;5061596;28;20178;-61
2021/01/06 06:55:37;;;;;;;2.00;1.52;;;-0.70;99.90;;;;;;5039305;28;20170;-60
2021/01/06 06:58:29;;;;;;;1.38;1.10;;;-0.70;99.90;;;;;;5054496;28;20163;-61
2021/01/06 07:00:55;;;;;;;2.40;1.40;;;-0.70;99.90;;;;;;5057854;28;20162;-61
2021/01/06 07:03:26;;;;;;;2.03;1.35;;;-0.70;99.90;;;;;;5063351;28;20188;-61
2021/01/06 07:05:57;;;;;;;1.98;1.45;;;-0.70;99.90;;;;;;5041935;28;20674;-60
2021/01/06 07:08:30;;;;;;;2.70;1.27;;;-0.80;99.90;;;;;;5044709;28;20676;-61
2021/01/06 07:11:09;;;;;;;5.00;1.35;;;-0.80;99.90;;;;;;5060611;28;20522;-61
2021/01/06 07:13:35;;;;;;;1.80;1.05;;;-0.80;99.90;;;;;;5062652;28;20526;-61
2021/01/06 07:16:06;;;;;;;2.55;1.10;;;-0.80;99.90;;;;;;5059450;28;20162;-62
2021/01/06 07:18:44;;;;;;;1.65;1.05;;;-0.80;99.90;;;;;;5071189;28;20205;-62
2021/01/06 07:21:17;;;;;;;2.22;1.13;;;-0.70;99.90;;;;;;5044314;28;20170;-61
2021/01/06 07:24:04;;;;;;;1.77;1.30;;;-0.70;99.90;;;;;;5059804;28;20193;-61
2021/01/06 07:26:41;;;;;;;3.53;1.25;;;-0.70;99.90;;;;;;5068761;28;20213;-62
2021/01/06 07:29:08;;;;;;;1.27;1.00;;;-0.80;99.90;;;;;;5052432;28;20202;-62
2021/01/06 07:32:03;;;;;;;1.85;1.15;;;-0.80;99.90;;;;;;5035150;28;20182;-62
2021/01/06 07:34:51;;;;;;;2.25;1.20;;;-0.80;99.90;;;;;;5040261;28;20186;-62
2021/01/06 07:37:26;;;;;;;2.90;1.23;;;-0.70;99.90;;;;;;5048081;28;20177;-62
2021/01/06 07:40:17;;;;;;;2.30;1.30;;;-0.70;99.90;;;;;;5065077;28;20525;-62
2021/01/06 07:42:49;;;;;;;1.77;0.90;;;-0.80;99.90;;;;;;5050778;28;20171;-62
2021/01/06 07:45:20;;;;;;;1.70;1.15;;;-0.70;99.90;;;;;;5055161;28;20159;-62
2021/01/06 07:48:15;;;;;;;1.27;0.90;;;-0.80;99.90;;;;;;5061124;28;20167;-62
2021/01/06 07:50:52;;;;;;;2.67;1.00;;;-0.80;99.90;;;;;;5046251;28;20195;-62
2021/01/06 07:53:19;;;;;;;1.42;1.10;;;-0.70;99.90;;;;;;5034553;28;20194;-62
2021/01/06 07:55:59;;;;;;;2.17;1.10;;;-0.70;99.90;;;;;;5040875;28;20194;-62
2021/01/06 07:58:45;;;;;;;3.67;1.15;;;-0.70;99.90;;;;;;5051360;28;20173;-62
2021/01/06 08:01:17;;;;;;;3.75;1.00;;;-0.80;99.90;;;;;;5052221;28;20186;-62
2021/01/06 08:03:50;;;;;;;3.75;0.80;;;-0.80;99.90;;;;;;5059005;28;20526;-62
2021/01/06 08:06:20;;;;;;;1.85;1.00;;;-0.90;99.90;;;;;;5052852;28;20166;-62
2021/01/06 08:08:47;;;;;;;1.65;1.10;;;-0.90;99.90;;;;;;5055375;28;20670;-62
2021/01/06 08:11:19;;;;;;;2.45;1.00;;;-0.90;99.90;;;;;;5052745;28;20177;-61
2021/01/06 08:13:48;;;;;;;1.30;1.05;;;-0.90;99.90;;;;;;5052113;28;20181;-61
2021/01/06 08:16:18;;;;;;;1.10;0.90;;;-0.90;99.90;;;;;;5063293;28;20171;-61
2021/01/06 08:19:08;;;;;;;4.40;1.98;;;-0.90;99.90;;;;;;5033588;28;20190;-61
2021/01/06 08:22:08;;;;;;;1.27;0.85;;;-0.90;99.90;;;;;;5058057;28;20162;-60
2021/01/06 08:24:53;;;;;;;3.55;0.90;;;-0.90;99.90;;;;;;5051390;28;20190;-61
2021/01/06 08:27:28;;;;;;;2.60;0.90;;;-0.80;99.90;;;;;;5049418;28;20538;-61
2021/01/06 08:30:24;;;;;;;1.20;0.80;;;-0.90;99.90;;;;;;5045066;28;20206;-61
2021/01/06 08:33:05;;;;;;;1.10;0.90;;;-0.90;99.90;;;;;;5047776;28;20183;-61
2021/01/06 08:35:33;;;;;;;4.15;1.20;;;-0.90;99.90;;;;;;5041280;28;20169;-61
2021/01/06 08:37:59;;;;;;;2.35;1.05;;;-0.90;99.90;;;;;;5052906;28;20173;-61
2021/01/06 08:40:35;;;;;;;4.55;1.30;;;-0.80;99.90;;;;;;5064621;28;20181;-61
2021/01/06 08:43:08;;;;;;;1.80;1.15;;;-0.80;99.90;;;;;;5060364;28;20158;-61
2021/01/06 08:45:35;;;;;;;1.65;1.00;;;-0.80;99.90;;;;;;5043394;28;20186;-61
2021/01/06 08:48:17;;;;;;;1.65;1.00;;;-0.80;99.90;;;;;;5051383;28;20170;-61
2021/01/06 08:50:44;;;;;;;1.45;0.95;;;-0.80;99.90;;;;;;5054866;28;20690;-60
2021/01/06 08:53:13;;;;;;;1.10;0.90;;;-0.80;99.90;;;;;;5055811;28;20186;-61
2021/01/06 08:55:41;;;;;;;4.63;0.85;;;-0.80;99.90;;;;;;5054834;28;20193;-61
2021/01/06 08:58:11;;;;;;;1.38;0.85;;;-0.70;99.90;;;;;;5052577;28;20166;-61
2021/01/06 09:00:41;;;;;;;1.35;1.02;;;-0.70;99.90;;;;;;5041403;28;20182;-61
2021/01/06 09:03:07;;;;;;;1.00;0.80;;;-0.70;99.90;;;;;;5059528;28;20509;-61
2021/01/06 09:05:55;;;;;;;1.13;0.85;;;-0.60;99.90;;;;;;5052683;28;20630;-61
2021/01/06 09:08:53;;;;;;;3.67;0.95;;;-0.60;99.90;;;;;;5048231;28;20651;-61
2021/01/06 09:11:26;;;;;;;2.78;0.90;;;-0.70;99.90;;;;;;5049384;28;20183;-61
2021/01/06 09:13:52;;;;;;;2.08;1.10;;;-0.60;99.90;;;;;;5049653;28;20182;-61
2021/01/06 09:16:21;;;;;;;4.80;2.28;;;-0.50;99.90;;;;;;5052019;28;20550;-61
2021/01/06 09:18:54;;;;;;;3.17;1.10;;;-0.50;99.90;;;;;;5043524;28;20214;-61
2021/01/06 09:21:21;;;;;;;2.28;0.90;;;-0.50;99.90;;;;;;5050775;28;20179;-62
2021/01/06 09:23:50;;;;;;;1.30;0.98;;;-0.50;99.90;;;;;;5034586;28;20190;-62
2021/01/06 09:26:18;;;;;;;15.77;10.10;;;-0.50;99.90;;;;;;5046413;28;20277;-62
2021/01/06 09:28:48;;;;;;;11.75;6.25;;;-0.50;99.90;;;;;;5038818;28;20216;-62
2021/01/06 09:31:14;;;;;;;2.97;2.17;;;-0.50;99.90;;;;;;5033804;28;20179;-61
2021/01/06 09:33:40;;;;;;;4.45;2.08;;;-0.50;99.90;;;;;;5017418;28;20198;-62
2021/01/06 09:36:07;;;;;;;8.63;4.05;;;-0.60;99.90;;;;;;5035322;28;20543;-61
2021/01/06 09:38:59;;;;;;;4.97;2.25;;;-0.50;99.90;;;;;;5051712;28;20227;-62
2021/01/06 09:41:30;;;;;;;2.95;1.42;;;-0.50;99.90;;;;;;5050583;28;20186;-62
2021/01/06 09:44:00;;;;;;;8.27;3.63;;;-0.50;99.90;;;;;;5050808;28;20174;-62
2021/01/06 09:46:44;;;;;;;6.97;4.13;;;-0.50;99.90;;;;;;5050643;28;20178;-62
2021/01/06 09:49:15;;;;;;;23.55;10.35;;;-0.40;99.90;;;;;;5051081;28;20558;-62
2021/01/06 09:51:44;;;;;;;2.15;1.35;;;-0.50;99.90;;;;;;5035357;28;20178;-61
2021/01/06 09:54:10;;;;;;;3.17;1.83;;;-0.50;99.90;;;;;;5051156;28;20181;-61
2021/01/06 09:56:36;;;;;;;22.63;7.18;;;-0.50;99.90;;;;;;5034078;28;20174;-66
2021/01/06 09:59:04;;;;;;;16.98;5.38;;;-0.50;99.90;;;;;;5041106;28;20166;-65
2021/01/06 10:01:41;;;;;;;11.70;4.55;;;-0.50;99.90;;;;;;5034680;28;20170;-66
2021/01/06 10:04:28;;;;;;;25.63;9.52;;;-0.40;99.90;;;;;;5033335;28;20194;-62
2021/01/06 10:06:58;;;;;;;2.47;1.40;;;-0.40;99.90;;;;;;5051259;28;20187;-62
2021/01/06 10:09:40;;;;;;;6.68;1.30;;;-0.50;99.90;;;;;;5049218;28;20221;-61
2021/01/06 10:12:27;;;;;;;8.73;3.13;;;-0.50;99.90;;;;;;5034162;28;20534;-61
2021/01/06 10:15:24;;;;;;;11.82;3.95;;;-0.50;99.90;;;;;;5051429;28;20162;-61
2021/01/06 10:18:26;;;;;;;3.10;1.77;;;-0.50;99.90;;;;;;5058073;28;20209;-61
2021/01/06 10:21:20;;;;;;;2.88;1.75;;;-0.50;99.90;;;;;;5044084;28;20194;-61
2021/01/06 10:24:05;;;;;;;4.32;2.15;;;-0.50;99.90;;;;;;5058831;28;20209;-63
2021/01/06 10:26:40;;;;;;;2.60;1.52;;;-0.40;99.90;;;;;;5033743;28;20709;-61
2021/01/06 10:29:12;;;;;;;3.42;1.80;;;-0.40;99.90;;;;;;5051684;28;20206;-61
2021/01/06 10:32:00;;;;;;;2.63;1.40;;;-0.40;99.90;;;;;;5051998;28;20170;-60
2021/01/06 10:34:43;;;;;;;2.47;1.35;;;-0.40;99.90;;;;;;5051367;28;20670;-61
2021/01/06 10:37:25;;;;;;;2.25;1.65;;;-0.40;99.90;;;;;;5050108;28;20205;-61
2021/01/06 10:40:14;;;;;;;2.17;1.50;;;-0.40;99.90;;;;;;5034417;28;20183;-60
2021/01/06 10:42:41;;;;;;;1.67;1.40;;;-0.50;99.90;;;;;;5048731;28;20736;-63
2021/01/06 10:45:36;;;;;;;2.72;1.60;;;-0.40;99.90;;;;;;5050017;28;20174;-60
2021/01/06 10:48:03;;;;;;;2.08;1.42;;;-0.40;99.90;;;;;;5047912;28;20219;-60
2021/01/06 10:50:29;;;;;;;4.10;1.75;;;-0.40;99.90;;;;;;5049546;28;20210;-69
2021/01/06 10:53:15;;;;;;;4.00;1.83;;;-0.40;99.90;;;;;;5051397;28;20188;-77
2021/01/06 10:56:02;;;;;;;4.75;1.95;;;-0.40;99.90;;;;;;5050712;28;20171;-63
2021/01/06 10:58:40;;;;;;;2.03;1.50;;;-0.30;99.90;;;;;;5049459;28;20167;-73
2021/01/06 11:01:09;;;;;;;1.92;1.50;;;-0.30;99.90;;;;;;5051296;28;20167;-61
2021/01/06 11:03:53;;;;;;;2.90;1.60;;;-0.40;99.90;;;;;;5051390;28;20185;-62
2021/01/06 11:06:44;;;;;;;4.00;2.20;;;-0.30;99.90;;;;;;5050719;28;20159;-59
2021/01/06 11:09:16;;;;;;;2.60;1.98;;;-0.30;99.90;;;;;;5044422;28;20190;-62
2021/01/06 11:12:20;;;;;;;3.40;1.90;;;-0.20;99.90;;;;;;5054572;28;20179;-66
2021/01/06 11:15:17;;;;;;;2.80;1.60;;;-0.20;99.90;;;;;;5052985;28;20182;-66
2021/01/06 11:17:43;;;;;;;3.17;1.85;;;-0.20;99.90;;;;;;5053687;28;20674;-66
2021/01/06 11:20:30;;;;;;;2.53;1.75;;;-0.30;99.90;;;;;;5053655;28;20182;-60
2021/01/06 11:23:21;;;;;;;3.70;2.08;;;-0.20;99.90;;;;;;5029253;28;20171;-66
2021/01/06 11:25:50;;;;;;;2.88;1.80;;;-0.20;99.90;;;;;;5054498;28;20214;-66
2021/01/06 11:28:46;;;;;;;4.45;1.98;;;-0.20;99.90;;;;;;5054251;28;20175;-67
2021/01/06 11:31:21;;;;;;;2.83;1.70;;;-0.20;99.90;;;;;;5045342;28;20632;-67
2021/01/06 11:34:09;;;;;;;4.85;1.88;;;-0.30;99.90;;;;;;5053172;28;20186;-76
2021/01/06 11:36:41;;;;;;;2.90;1.88;;;-0.30;99.90;;;;;;5053779;28;20170;-62
2021/01/06 11:39:15;;;;;;;3.13;1.70;;;-0.40;99.90;;;;;;5053917;28;20514;-70
2021/01/06 11:41:48;;;;;;;3.08;1.95;;;-0.40;99.90;;;;;;5053700;28;20151;-64
2021/01/06 11:44:20;;;;;;;2.92;1.95;;;-0.40;99.90;;;;;;5054171;28;20188;-75
2021/01/06 11:46:52;;;;;;;3.70;2.20;;;-0.40;99.90;;;;;;5052846;28;20187;-69
2021/01/06 11:49:32;;;;;;;3.63;2.15;;;-0.40;99.90;;;;;;5053545;28;20210;-68
2021/01/06 11:52:37;;;;;;;3.75;2.25;;;-0.40;99.90;;;;;;5054197;28;20167;-70
2021/01/06 11:55:40;;;;;;;5.20;2.80;;;-0.40;99.90;;;;;;5053787;28;20205;-71
2021/01/06 11:58:13;;;;;;;3.80;1.95;;;-0.40;99.90;;;;;;5054234;28;20170;-65
2021/01/06 12:00:42;;;;;;;3.33;2.20;;;-0.40;99.90;;;;;;5052754;28;20222;-64
2021/01/06 12:03:08;;;;;;;3.83;2.05;;;-0.30;99.90;;;;;;5054242;28;20175;-70
2021/01/06 12:06:00;;;;;;;3.08;2.05;;;-0.40;99.90;;;;;;5052651;28;20183;-71
2021/01/06 12:08:52;;;;;;;4.60;2.50;;;-0.30;99.90;;;;;;5053478;28;20206;-69
2021/01/06 12:11:41;;;;;;;2.63;1.75;;;-0.40;99.90;;;;;;5053295;28;20190;-65
2021/01/06 12:14:31;;;;;;;3.40;2.08;;;-0.40;99.90;;;;;;5039403;28;20170;-76
2021/01/06 12:17:05;;;;;;;4.13;2.38;;;-0.30;99.90;;;;;;5053355;28;20602;-62
2021/01/06 12:19:55;;;;;;;3.28;2.28;;;-0.30;99.90;;;;;;5035682;28;20184;-68
2021/01/06 12:22:21;;;;;;;6.28;2.47;;;-0.30;99.90;;;;;;5053325;28;20165;-68
2021/01/06 12:24:50;;;;;;;3.08;2.17;;;-0.30;99.90;;;;;;5018894;28;20550;-68
2021/01/06 12:27:34;;;;;;;6.10;2.58;;;-0.30;99.90;;;;;;5052501;28;20178;-69
2021/01/06 12:30:21;;;;;;;4.25;2.42;;;-0.30;99.90;;;;;;5052385;28;20190;-67
2021/01/06 12:32:56;;;;;;;4.70;2.40;;;-0.30;99.90;;;;;;5034579;28;20546;-65
2021/01/06 12:35:46;;;;;;;4.28;2.38;;;-0.30;99.90;;;;;;5043783;28;20643;-54
2021/01/06 12:38:26;;;;;;;4.43;2.67;;;-0.20;99.90;;;;;;5020943;28;20631;-55
2021/01/06 12:41:19;;;;;;;7.20;2.50;;;-0.30;99.90;;;;;;5053347;28;20198;-54
2021/01/06 12:43:56;;;;;;;4.40;2.63;;;-0.30;99.90;;;;;;5052512;28;20185;-54
2021/01/06 12:46:45;;;;;;;3.92;2.33;;;-0.30;99.90;;;;;;5052873;28;20167;-55
2021/01/06 12:49:14;;;;;;;4.80;2.42;;;-0.20;99.90;;;;;;5051845;28;20215;-51
2021/01/06 12:51:45;;;;;;;4.65;3.00;;;-0.20;99.90;;;;;;5053349;28;20182;-54
2021/01/06 12:54:18;;;;;;;3.28;2.20;;;-0.20;99.90;;;;;;5051581;28;20174;-53
2021/01/06 12:56:46;;;;;;;5.03;2.40;;;-0.20;99.90;;;;;;5049935;28;20191;-55
2021/01/06 12:59:16;;;;;;;4.90;2.30;;;-0.20;99.90;;;;;;5050108;28;20503;-51
2021/01/06 13:01:58;;;;;;;5.93;2.80;;;-0.30;99.90;;;;;;5051553;28;20632;-51
2021/01/06 13:04:35;;;;;;;4.18;2.58;;;-0.30;99.90;;;;;;5049717;28;20560;-52
2021/01/06 13:07:26;;;;;;;6.22;2.60;;;-0.30;99.90;;;;;;5043936;28;20158;-60
2021/01/06 13:09:56;;;;;;;3.75;2.30;;;-0.30;99.90;;;;;;5051174;28;20209;-62
2021/01/06 13:12:44;;;;;;;3.67;2.33;;;-0.30;99.90;;;;;;5051579;28;20175;-59
2021/01/06 13:15:35;;;;;;;7.55;2.60;;;-0.40;99.90;;;;;;5051484;28;20189;-62
2021/01/06 13:18:04;;;;;;;5.05;2.80;;;-0.30;99.90;;;;;;5051799;28;20190;-68
2021/01/06 13:20:36;;;;;;;3.72;2.50;;;-0.30;99.90;;;;;;5050189;28;20174;-62
2021/01/06 13:23:10;;;;;;;5.03;2.65;;;-0.30;99.90;;;;;;5056501;28;20170;-62
2021/01/06 13:25:39;;;;;;;4.68;2.40;;;-0.20;99.90;;;;;;5058227;28;20206;-62
2021/01/06 13:28:16;;;;;;;4.00;2.38;;;-0.20;99.90;;;;;;5058736;28;20193;-62
2021/01/06 13:30:49;;;;;;;3.95;2.47;;;-0.30;99.90;;;;;;5051984;28;20204;-62
2021/01/06 13:33:41;;;;;;;3.67;2.03;;;-0.20;99.90;;;;;;5062735;28;20220;-62